| time (UTC) | temp C | wind direction | speed KPH | gust KPH | rain 1hr cm | rain 24hr cm | rain mn cm | humidity % | barometer mb |
| 20260906053029 | 26 | 293 | 0.0 | 4.8 | 0.00 | 0.00 | 0.00 | 43 | 1019.3 |
| 20260906051531 | 25 | 283 | 0.0 | 4.8 | 0.00 | 0.00 | 0.00 | 45 | 1019.2 |
| 20260906050047 | 25 | 283 | 0.0 | 4.8 | 0.00 | 0.00 | 0.00 | 45 | 1019.1 |
| 20260906044522 | 25 | 305 | 1.6 | 6.4 | 0.00 | 0.00 | 0.00 | 46 | 1018.9 |
| 20260906043022 | 24 | 252 | 1.6 | 6.4 | 0.00 | 0.00 | 0.00 | 47 | 1018.9 |
| 20260906041519 | 25 | 267 | 1.6 | 4.8 | 0.00 | 0.00 | 0.00 | 47 | 1018.9 |
| 20260906040119 | 25 | 269 | 1.6 | 4.8 | 0.00 | 0.00 | 0.00 | 47 | 1018.7 |
| 20260906034515 | 25 | 274 | 1.6 | 4.8 | 0.00 | 0.00 | 0.00 | 48 | 1018.6 |
| 20260906033019 | 25 | 209 | 1.6 | 4.8 | 0.00 | 0.00 | 0.00 | 48 | 1018.5 |
| 20260906031514 | 25 | 285 | 0.0 | 3.2 | 0.00 | 0.00 | 0.00 | 48 | 1018.5 |
| 20260906030010 | 25 | 275 | 0.0 | 3.2 | 0.00 | 0.00 | 0.00 | 48 | 1018.4 |
| 20260906024510 | 25 | 274 | 0.0 | 4.8 | 0.00 | 0.00 | 0.00 | 48 | 1018.4 |
| 20260906023008 | 25 | 260 | 1.6 | 4.8 | 0.00 | 0.00 | 0.00 | 48 | 1018.3 |
| 20260906021504 | 26 | 267 | 3.2 | 6.4 | 0.00 | 0.00 | 0.00 | 47 | 1018.3 |
| 20260906020004 | 26 | 288 | 1.6 | 4.8 | 0.00 | 0.00 | 0.00 | 47 | 1018.2 |
| 20260906014506 | 26 | 280 | 0.0 | 6.4 | 0.00 | 0.00 | 0.00 | 47 | 1018.4 |
| 20260906013006 | 26 | 267 | 1.6 | 6.4 | 0.00 | 0.00 | 0.00 | 46 | 1018.3 |
| 20260906011502 | 26 | 243 | 3.2 | 11.3 | 0.00 | 0.00 | 0.00 | 46 | 1018.3 |
| 20260906010002 | 26 | 275 | 0.0 | 6.4 | 0.00 | 0.00 | 0.00 | 46 | 1018.3 |
| 20260906004603 | 26 | 274 | 0.0 | 6.4 | 0.00 | 0.00 | 0.00 | 46 | 1018.4 |
| 20260906003108 | 26 | 269 | 3.2 | 8.0 | 0.00 | 0.00 | 0.00 | 45 | 1018.2 |
| 20260906001559 | 26 | 287 | 3.2 | 8.0 | 0.00 | 0.00 | 0.00 | 45 | 1018.2 |
| 20260906000056 | 26 | 248 | 3.2 | 9.7 | 0.00 | 0.00 | 0.00 | 44 | 1018.3 |
| 20260905234603 | 26 | 269 | 1.6 | 8.0 | 0.00 | 0.00 | 0.00 | 42 | 1018.4 |
| 20260905233049 | 26 | 269 | 3.2 | 8.0 | 0.00 | 0.00 | 0.00 | 41 | 1018.5 |
| 20260905231546 | 26 | 272 | 4.8 | 11.3 | 0.00 | 0.00 | 0.00 | 40 | 1018.4 |
| 20260905230050 | 26 | 210 | 6.4 | 11.3 | 0.00 | 0.00 | 0.00 | 40 | 1018.5 |
| 20260905224544 | 27 | 274 | 3.2 | 11.3 | 0.00 | 0.00 | 0.00 | 39 | 1018.6 |
| 20260905223041 | 27 | 265 | 4.8 | 11.3 | 0.00 | 0.00 | 0.00 | 38 | 1018.5 |
| 20260905221538 | 27 | 296 | 3.2 | 9.7 | 0.00 | 0.00 | 0.00 | 37 | 1018.3 |
| 20260905220034 | 28 | 237 | 4.8 | 11.3 | 0.00 | 0.00 | 0.00 | 36 | 1018.3 |
| 20260905214533 | 28 | 279 | 4.8 | 12.9 | 0.00 | 0.00 | 0.00 | 35 | 1018.3 |
| 20260905213032 | 28 | 274 | 4.8 | 12.9 | 0.00 | 0.00 | 0.00 | 36 | 1018.3 |
| 20260905211531 | 28 | 238 | 4.8 | 11.3 | 0.00 | 0.00 | 0.00 | 36 | 1018.3 |
| 20260905210041 | 28 | 270 | 4.8 | 9.7 | 0.00 | 0.00 | 0.00 | 37 | 1018.4 |
| 20260905204531 | 28 | 283 | 4.8 | 16.1 | 0.00 | 0.00 | 0.00 | 38 | 1018.3 |
| 20260905203030 | 28 | 191 | 3.2 | 9.7 | 0.00 | 0.00 | 0.00 | 39 | 1018.3 |
| 20260905201536 | 28 | 302 | 1.6 | 8.0 | 0.00 | 0.00 | 0.00 | 38 | 1018.2 |
| 20260905200040 | 30 | 222 | 3.2 | 8.0 | 0.00 | 0.00 | 0.00 | 36 | 1018.3 |
| 20260905194527 | 30 | 224 | 4.8 | 12.9 | 0.00 | 0.00 | 0.00 | 36 | 1018.3 |
| 20260905193030 | 30 | 219 | 6.4 | 11.3 | 0.00 | 0.00 | 0.00 | 36 | 1018.2 |
| 20260905191527 | 31 | 269 | 9.7 | 17.7 | 0.00 | 0.00 | 0.00 | 36 | 1018.1 |
| 20260905190027 | 31 | 259 | 9.7 | 19.3 | 0.00 | 0.00 | 0.00 | 35 | 1018.1 |
| 20260905184534 | 31 | 271 | 8.0 | 16.1 | 0.00 | 0.00 | 0.00 | 36 | 1018.0 |
| 20260905183028 | 31 | 281 | 6.4 | 12.9 | 0.00 | 0.00 | 0.00 | 36 | 1018.1 |
| 20260905181525 | 31 | 191 | 4.8 | 11.3 | 0.00 | 0.00 | 0.00 | 37 | 1017.8 |
| 20260905180024 | 31 | 171 | 4.8 | 12.9 | 0.00 | 0.00 | 0.00 | 37 | 1017.8 |
| 20260905174532 | 32 | 165 | 6.4 | 12.9 | 0.00 | 0.00 | 0.00 | 38 | 1017.4 |
| 20260905173025 | 32 | 185 | 8.0 | 12.9 | 0.00 | 0.00 | 0.00 | 38 | 1017.3 |
| 20260905171523 | 32 | 186 | 6.4 | 14.5 | 0.00 | 0.00 | 0.00 | 38 | 1017.3 |
| 20260905170022 | 32 | 191 | 6.4 | 12.9 | 0.00 | 0.00 | 0.00 | 44 | 1017.2 |
| 20260905164521 | 31 | 182 | 3.2 | 8.0 | 0.00 | 0.00 | 0.00 | 42 | 1017.2 |
| 20260905163020 | 32 | 127 | 4.8 | 9.7 | 0.00 | 0.00 | 0.00 | 53 | 1017.1 |
| 20260905161519 | 32 | 167 | 6.4 | 16.1 | 0.00 | 0.00 | 0.00 | 47 | 1017.1 |
| 20260905160036 | 31 | 179 | 9.7 | 17.7 | 0.00 | 0.00 | 0.00 | 45 | 1017.1 |
| 20260905154516 | 31 | 153 | 8.0 | 17.7 | 0.00 | 0.00 | 0.00 | 51 | 1017.1 |
| 20260905153016 | 31 | 130 | 11.3 | 20.9 | 0.00 | 0.00 | 0.00 | 47 | 1017.1 |
| 20260905151515 | 31 | 172 | 8.0 | 19.3 | 0.00 | 0.00 | 0.00 | 51 | 1017.2 |
| 20260905150023 | 31 | 145 | 11.3 | 19.3 | 0.00 | 0.00 | 0.00 | 54 | 1017.4 |
| 20260905144536 | 31 | 189 | 4.8 | 19.3 | 0.00 | 0.00 | 0.00 | 52 | 1017.4 |
| 20260905143019 | 30 | 172 | 14.5 | 24.1 | 0.00 | 0.00 | 0.00 | 52 | 1017.4 |
| 20260905141510 | 30 | 153 | 11.3 | 20.9 | 0.00 | 0.00 | 0.00 | 55 | 1017.6 |
| 20260905140009 | 30 | 173 | 8.0 | 22.5 | 0.00 | 0.00 | 0.00 | 56 | 1017.6 |
| 20260905134514 | 30 | 153 | 9.7 | 24.1 | 0.00 | 0.00 | 0.00 | 57 | 1017.6 |
| 20260905133009 | 30 | 145 | 11.3 | 24.1 | 0.00 | 0.00 | 0.00 | 55 | 1017.7 |
| 20260905131507 | 30 | 157 | 12.9 | 25.7 | 0.00 | 0.00 | 0.00 | 59 | 1017.7 |
| 20260905130005 | 30 | 144 | 16.1 | 25.7 | 0.00 | 0.00 | 0.00 | 56 | 1017.9 |
| 20260905124502 | 30 | 122 | 16.1 | 29.0 | 0.00 | 0.00 | 0.00 | 56 | 1017.9 |
| 20260905123002 | 30 | 128 | 16.1 | 27.4 | 0.00 | 0.00 | 0.00 | 56 | 1018.1 |
| 20260905121500 | 31 | 139 | 19.3 | 25.7 | 0.00 | 0.00 | 0.00 | 52 | 1018.2 |
| 20260905120100 | 31 | 146 | 16.1 | 24.1 | 0.00 | 0.00 | 0.00 | 44 | 1018.4 |
| 20260905114627 | 31 | 142 | 14.5 | 24.1 | 0.00 | 0.00 | 0.00 | 50 | 1018.5 |
| 20260905113058 | 31 | 133 | 17.7 | 24.1 | 0.00 | 0.00 | 0.00 | 49 | 1018.5 |
| 20260905111555 | 31 | 141 | 14.5 | 20.9 | 0.00 | 0.00 | 0.00 | 41 | 1018.6 |
| 20260905110053 | 32 | 127 | 8.0 | 19.3 | 0.00 | 0.00 | 0.00 | 40 | 1018.6 |
| 20260905104554 | 31 | 113 | 12.9 | 19.3 | 0.00 | 0.00 | 0.00 | 40 | 1018.6 |
| 20260905103052 | 32 | 134 | 12.9 | 20.9 | 0.00 | 0.00 | 0.00 | 35 | 1018.7 |
| 20260905101552 | 32 | 126 | 9.7 | 17.7 | 0.00 | 0.00 | 0.00 | 34 | 1018.8 |
| 20260905100109 | 32 | 148 | 6.4 | 14.5 | 0.00 | 0.00 | 0.00 | 34 | 1018.9 |
| 20260905094604 | 32 | 138 | 6.4 | 14.5 | 0.00 | 0.00 | 0.00 | 33 | 1019.0 |
| 20260905093049 | 32 | 150 | 8.0 | 14.5 | 0.00 | 0.00 | 0.00 | 31 | 1019.0 |
| 20260905091559 | 32 | 158 | 6.4 | 14.5 | 0.00 | 0.00 | 0.00 | 33 | 1019.2 |
| 20260905090049 | 32 | 139 | 4.8 | 11.3 | 0.00 | 0.00 | 0.00 | 32 | 1019.2 |
| 20260905084548 | 32 | 140 | 1.6 | 8.0 | 0.00 | 0.00 | 0.00 | 31 | 1019.3 |
| 20260905083047 | 31 | 56 | 0.0 | 8.0 | 0.00 | 0.00 | 0.00 | 36 | 1019.3 |
| 20260905081547 | 32 | 89 | 3.2 | 6.4 | 0.00 | 0.00 | 0.00 | 34 | 1019.3 |
| 20260905080046 | 32 | 179 | 0.0 | 4.8 | 0.00 | 0.00 | 0.00 | 30 | 1019.3 |
| 20260905074553 | 31 | 316 | 0.0 | 1.6 | 0.00 | 0.00 | 0.00 | 33 | 1019.2 |
| 20260905073057 | 31 | 222 | 0.0 | 6.4 | 0.00 | 0.00 | 0.00 | 35 | 1019.2 |
| 20260905071535 | 30 | 280 | 1.6 | 6.4 | 0.00 | 0.00 | 0.00 | 38 | 1019.1 |
| 20260905070032 | 28 | 203 | 1.6 | 6.4 | 0.00 | 0.00 | 0.00 | 40 | 1019.2 |
| 20260905064528 | 27 | 255 | 3.2 | 8.0 | 0.00 | 0.00 | 0.00 | 41 | 1019.1 |
| 20260905063022 | 26 | 276 | 1.6 | 9.7 | 0.00 | 0.00 | 0.00 | 43 | 1019.0 |
| 20260905061517 | 25 | 281 | 3.2 | 11.3 | 0.00 | 0.00 | 0.00 | 44 | 1019.1 |
| 20260905060016 | 24 | 311 | 3.2 | 11.3 | 0.00 | 0.00 | 0.00 | 45 | 1019.1 |
| 20260905054514 | 23 | 270 | 4.8 | 16.1 | 0.00 | 0.00 | 0.00 | 46 | 1019.1 |